Temp: 0.9°C   Baro: 1011.4mb
  Wind: 0.0mph   Dir: N (352°)
  Rain: 0.0mm (0.0mm/hr)
  Solar: 0W/m2  Hum: 84%

Historic data

Bath Spa Weather Station Historical Data
Daily Summary for January 1, 2021 Units:  Metric    English   Both
Daily Weekly Monthly Yearly Custom
  High: Low: Average:
Temperature: 10.6 °C 1.8 °C 7.3 °C
Dew Point: 9.8 °C -0.5 °C 5.5 °C
Humidity: 92% 80% 85%
Wind Speed: 22.9km/h 0km/h 10.1km/h
Wind Gust: 38.6km/h - -
Wind- - West
Pressure: 1011.1 hPa 997.9 hPa -
Precipitation: 4.32 mm    
Historical Graphs
 
 
Tabular Data for January 1, 2021
Time Temperature Dew Point Pressure Wind Wind Speed Wind Gust Humidity Rainfall Rate (Hourly) solar
00:04 10.6 °C 9.8 °C 999.5 hPa WNW 21.9 km/h 38.6 km/h 92% 0 mm 0 W/m2
00:09 10.6 °C 9.8 °C 999.2 hPa West 16.6 km/h 38.6 km/h 92% 0 mm 0 W/m2
00:14 10.6 °C 9.8 °C 999.2 hPa West 17.9 km/h 30.6 km/h 91.6% 0 mm 0 W/m2
00:19 10.6 °C 9.7 °C 999.2 hPa WNW 14.8 km/h 35.4 km/h 91% 0 mm 0 W/m2
00:24 10.6 °C 9.7 °C 999.2 hPa WNW 14.5 km/h 32.2 km/h 91% 0.25 mm 0 W/m2
00:29 10.6 °C 9.4 °C 999.2 hPa WNW 17.7 km/h 38.6 km/h 90% 0.25 mm 0 W/m2
00:34 10.5 °C 9.4 °C 998.9 hPa West 11.3 km/h 30.6 km/h 90% 0.25 mm 0 W/m2
00:39 10.4 °C 9.2 °C 998.9 hPa WNW 13.2 km/h 29 km/h 89% 0.25 mm 0 W/m2
00:44 10.4 °C 9.2 °C 998.9 hPa West 13.2 km/h 27.4 km/h 89% 0.25 mm 0 W/m2
00:49 10.4 °C 9.2 °C 998.9 hPa WNW 15.6 km/h 29 km/h 89% 0.25 mm 0 W/m2
00:54 10.4 °C 9.2 °C 998.9 hPa WNW 14.5 km/h 24.1 km/h 89% 0.25 mm 0 W/m2
00:59 10.3 °C 9.2 °C 998.9 hPa WNW 12.6 km/h 37 km/h 89% 0.25 mm 0 W/m2
01:04 10.4 °C 9.2 °C 998.5 hPa WNW 22.9 km/h 33.8 km/h 89% 0.25 mm 0 W/m2
01:09 10.4 °C 9.2 °C 998.5 hPa WNW 12.9 km/h 29 km/h 89% 0.25 mm 0 W/m2
01:14 10.4 °C 9.2 °C 998.5 hPa WNW 16.1 km/h 27.4 km/h 89% 0.25 mm 0 W/m2
01:19 10.3 °C 9.2 °C 998.2 hPa WNW 19 km/h 25.7 km/h 89% 0.25 mm 0 W/m2
01:24 10.3 °C 9.2 °C 998.2 hPa West 16.4 km/h 30.6 km/h 89% 0 mm 0 W/m2
01:29 10.4 °C 9.2 °C 998.2 hPa WNW 13.2 km/h 32.2 km/h 89% 0 mm 0 W/m2
01:34 10.4 °C 9.2 °C 998.2 hPa West 17.7 km/h 33.8 km/h 89.4% 0 mm 0 W/m2
01:39 10.4 °C 9.3 °C 998.2 hPa WNW 14.5 km/h 25.7 km/h 89.8% 0 mm 0 W/m2
01:44 10.3 °C 9.2 °C 998.2 hPa WNW 9.8 km/h 27.4 km/h 90% 0 mm 0 W/m2
01:49 10.3 °C 9.2 °C 997.9 hPa WNW 14.8 km/h 25.7 km/h 90% 0 mm 0 W/m2
01:54 10.2 °C 9.1 °C 997.9 hPa WNW 15.4 km/h 25.7 km/h 90% 0 mm 0 W/m2
01:59 10.2 °C 9.1 °C 997.9 hPa WNW 15.1 km/h 25.7 km/h 90% 0 mm 0 W/m2
02:04 10.2 °C 9.1 °C 997.9 hPa WNW 13.8 km/h 20.9 km/h 90% 0 mm 0 W/m2
02:09 10.1 °C 9 °C 997.9 hPa WNW 12.9 km/h 20.9 km/h 90% 0 mm 0 W/m2
02:14 10.1 °C 9 °C 997.9 hPa West 11.9 km/h 22.5 km/h 90% 0 mm 0 W/m2
02:19 10.1 °C 9 °C 997.9 hPa WNW 11.7 km/h 25.7 km/h 90% 0 mm 0 W/m2
02:22 10.1 °C 9 °C 997.9 hPa WNW 12.4 km/h 20.9 km/h 90% 0 mm 0 W/m2
02:29 10.1 °C 9 °C 997.9 hPa WNW 13.5 km/h 25.7 km/h 90% 0 mm 0 W/m2
02:34 10.1 °C 9 °C 997.9 hPa WNW 13.4 km/h 29 km/h 90% 0 mm 0 W/m2
02:39 10.1 °C 8.9 °C 997.9 hPa WNW 16.4 km/h 37 km/h 89.2% 0 mm 0 W/m2
02:44 10.1 °C 8.9 °C 997.9 hPa NW 9.7 km/h 24.1 km/h 89% 0 mm 0 W/m2
02:49 10.1 °C 8.9 °C 997.9 hPa WNW 19.3 km/h 30.6 km/h 89% 0 mm 0 W/m2
02:54 10 °C 8.8 °C 997.9 hPa NW 11.6 km/h 22.5 km/h 89% 0 mm 0 W/m2
02:59 9.9 °C 8.7 °C 997.9 hPa WNW 14.6 km/h 20.9 km/h 89% 0 mm 0 W/m2
03:04 9.9 °C 8.7 °C 998.2 hPa WNW 9.5 km/h 16.1 km/h 89% 0 mm 0 W/m2
03:09 9.8 °C 8.7 °C 998.2 hPa WNW 14.5 km/h 24.1 km/h 89% 0 mm 0 W/m2
03:14 9.8 °C 8.6 °C 997.9 hPa WNW 10.6 km/h 19.3 km/h 89% 0 mm 0 W/m2
03:19 9.8 °C 8.6 °C 998.2 hPa NW 11.3 km/h 19.3 km/h 89% 0 mm 0 W/m2
03:24 9.7 °C 8.6 °C 998.2 hPa WNW 9.7 km/h 20.9 km/h 89% 0 mm 0 W/m2
03:29 9.7 °C 8.3 °C 998.2 hPa WNW 9.3 km/h 17.7 km/h 88.2% 0 mm 0 W/m2
03:34 9.7 °C 8.3 °C 998.2 hPa WNW 15.3 km/h 19.3 km/h 88% 0 mm 0 W/m2
03:39 9.7 °C 8.1 °C 998.2 hPa NW 12.6 km/h 20.9 km/h 87% 0 mm 0 W/m2
03:44 9.7 °C 8.1 °C 998.5 hPa NW 14.5 km/h 38.6 km/h 86.6% 0 mm 0 W/m2
03:48 9.8 °C 7.8 °C 998.2 hPa NW 13.8 km/h 32.2 km/h 84.5% 0 mm 0 W/m2
03:54 9.8 °C 7.6 °C 998.2 hPa WNW 11.3 km/h 25.7 km/h 83% 0 mm 0 W/m2
03:59 9.8 °C 7.4 °C 998.2 hPa NW 10.3 km/h 25.7 km/h 82.6% 0 mm 0 W/m2
04:04 9.7 °C 7.3 °C 998.5 hPa NW 11.6 km/h 24.1 km/h 82% 0 mm 0 W/m2
04:09 9.7 °C 7.2 °C 998.5 hPa WNW 11.3 km/h 16.1 km/h 82% 0 mm 0 W/m2
04:14 9.6 °C 7.2 °C 998.5 hPa WNW 10.9 km/h 22.5 km/h 82.4% 0 mm 0 W/m2
04:19 9.5 °C 7.1 °C 998.5 hPa NW 8 km/h 24.1 km/h 82% 0 mm 0 W/m2
04:24 9.4 °C 7 °C 998.5 hPa NW 10 km/h 24.1 km/h 82% 0 mm 0 W/m2
04:29 9.4 °C 7 °C 998.5 hPa NW 10.6 km/h 24.1 km/h 82% 0 mm 0 W/m2
04:34 9.3 °C 6.9 °C 998.5 hPa NW 9.5 km/h 17.7 km/h 82% 0 mm 0 W/m2
04:39 9.3 °C 7 °C 998.9 hPa NW 7.1 km/h 14.5 km/h 82.4% 0 mm 0 W/m2
04:44 9.3 °C 7 °C 998.9 hPa WNW 5.8 km/h 12.9 km/h 82.8% 0 mm 0 W/m2
04:49 9.2 °C 7 °C 998.9 hPa WNW 13.2 km/h 25.7 km/h 83.2% 0 mm 0 W/m2
04:54 9.1 °C 7 °C 998.9 hPa NW 9 km/h 17.7 km/h 84% 0 mm 0 W/m2
04:59 9.1 °C 7 °C 998.9 hPa WNW 8.9 km/h 17.7 km/h 84% 0 mm 0 W/m2
05:04 8.9 °C 6.7 °C 998.9 hPa WNW 11.6 km/h 20.9 km/h 83% 0 mm 0 W/m2
05:09 8.9 °C 6.7 °C 998.9 hPa WNW 9.3 km/h 19.3 km/h 83% 0 mm 0 W/m2
05:14 8.9 °C 6.7 °C 999.2 hPa WNW 13.5 km/h 19.3 km/h 83% 0 mm 0 W/m2
05:18 8.9 °C 6.7 °C 999.2 hPa NW 8.4 km/h 14.5 km/h 83% 0 mm 0 W/m2
05:23 8.9 °C 6.7 °C 999.2 hPa WNW 10.8 km/h 20.9 km/h 83% 0 mm 0 W/m2
05:29 8.9 °C 6.7 °C 999.2 hPa WNW 14.8 km/h 30.6 km/h 83% 0 mm 0 W/m2
05:34 8.9 °C 6.7 °C 999.5 hPa WNW 12.9 km/h 24.1 km/h 83% 0 mm 0 W/m2
05:39 8.8 °C 6.6 °C 999.5 hPa WNW 13.2 km/h 24.1 km/h 83% 0 mm 0 W/m2
05:44 8.7 °C 6.6 °C 999.5 hPa WNW 12.6 km/h 27.4 km/h 83% 0 mm 0 W/m2
05:49 8.7 °C 6.6 °C 999.5 hPa WNW 12.2 km/h 27.4 km/h 84% 0 mm 0 W/m2
05:54 8.6 °C 6.5 °C 999.5 hPa WNW 11.6 km/h 20.9 km/h 83.8% 0 mm 0 W/m2
05:59 8.6 °C 6.5 °C 999.5 hPa WNW 12.9 km/h 22.5 km/h 83.8% 0 mm 0 W/m2
06:04 8.6 °C 6.5 °C 999.5 hPa WNW 16.9 km/h 22.5 km/h 84% 0 mm 0 W/m2
06:09 8.5 °C 6.4 °C 999.5 hPa WNW 10.6 km/h 20.9 km/h 84.2% 0 mm 0 W/m2
06:14 8.3 °C 6.4 °C 999.5 hPa WNW 8.5 km/h 19.3 km/h 85% 0.25 mm 0 W/m2
06:19 8.2 °C 6.4 °C 999.9 hPa WNW 12.6 km/h 20.9 km/h 86% 0.51 mm 0 W/m2
06:24 7.9 °C 6.4 °C 999.9 hPa WNW 10.6 km/h 22.5 km/h 86.8% 0.51 mm 0 W/m2
06:29 7.8 °C 6.3 °C 999.9 hPa WNW 9.2 km/h 17.7 km/h 87.4% 1.02 mm 0 W/m2
06:34 7.7 °C 6.3 °C 999.9 hPa WNW 10.5 km/h 16.1 km/h 88% 1.27 mm 0 W/m2
06:39 7.6 °C 6.4 °C 999.9 hPa WNW 8.5 km/h 16.1 km/h 88.8% 1.52 mm 0 W/m2
06:44 7.6 °C 6.3 °C 999.9 hPa WNW 8.5 km/h 17.7 km/h 89% 2.03 mm 0 W/m2
06:49 7.4 °C 6.3 °C 999.9 hPa WNW 9.2 km/h 14.5 km/h 89.6% 2.29 mm 0 W/m2
06:54 7.3 °C 6.3 °C 999.9 hPa WNW 8 km/h 16.1 km/h 90% 2.29 mm 0 W/m2
06:59 7.3 °C 6.3 °C 999.9 hPa WNW 9 km/h 12.9 km/h 90% 2.29 mm 0 W/m2
07:04 7.3 °C 6.3 °C 1000.2 hPa WNW 5.8 km/h 11.3 km/h 90.4% 2.29 mm 0 W/m2
07:09 7.2 °C 6.3 °C 1000.2 hPa WNW 6.6 km/h 11.3 km/h 91% 2.29 mm 0 W/m2
07:14 7.2 °C 6.3 °C 1000.2 hPa WNW 7.7 km/h 11.3 km/h 91% 2.29 mm 0 W/m2
07:19 7.2 °C 6.3 °C 1000.2 hPa WNW 7.2 km/h 11.3 km/h 91% 2.29 mm 0 W/m2
07:24 7.2 °C 6.3 °C 1000.2 hPa WNW 7.1 km/h 14.5 km/h 91% 2.03 mm 0 W/m2
07:29 7.2 °C 6.2 °C 1000.2 hPa WNW 9.3 km/h 16.1 km/h 91% 1.78 mm 0 W/m2
07:34 7.1 °C 6.2 °C 1000.2 hPa WNW 8.5 km/h 16.1 km/h 91% 1.52 mm 0 W/m2
07:39 7.1 °C 6.2 °C 1000.2 hPa WNW 11.3 km/h 16.1 km/h 91% 1.27 mm 0 W/m2
07:44 7.1 °C 6.2 °C 1000.2 hPa NW 8.5 km/h 14.5 km/h 91% 0.76 mm 0 W/m2
07:49 7.2 °C 6.2 °C 1000.2 hPa NW 10.8 km/h 20.9 km/h 91% 0.51 mm 0 W/m2
07:54 7.2 °C 6.2 °C 1000.2 hPa NW 9.8 km/h 17.7 km/h 90.8% 0.51 mm 0 W/m2
07:59 7.2 °C 6.2 °C 1000.2 hPa WNW 10.9 km/h 17.7 km/h 90% 0.25 mm 0 W/m2
08:04 7.2 °C 6.2 °C 1000.2 hPa WNW 9.8 km/h 17.7 km/h 90% 0.25 mm 5 W/m2
08:09 7.1 °C 6.1 °C 1000.6 hPa NW 8.2 km/h 17.7 km/h 90% 0.25 mm 7 W/m2
08:14 7.1 °C 6 °C 1000.6 hPa NW 8.4 km/h 16.1 km/h 89.6% 0.25 mm 7 W/m2
08:19 7.1 °C 5.9 °C 1000.6 hPa WNW 11.6 km/h 20.9 km/h 89% 0.25 mm 9 W/m2
08:24 7.1 °C 5.9 °C 1000.6 hPa WNW 7.2 km/h 19.3 km/h 89% 0 mm 9 W/m2
08:29 7.1 °C 5.9 °C 1000.6 hPa NW 11.3 km/h 20.9 km/h 89% 0 mm 19 W/m2
08:34 7.2 °C 5.8 °C 1000.6 hPa NW 11.3 km/h 16.1 km/h 88.2% 0 mm 25 W/m2
08:39 7.2 °C 5.8 °C 1000.6 hPa WNW 11.9 km/h 22.5 km/h 88% 0 mm 26 W/m2
08:44 7.3 °C 5.8 °C 1000.6 hPa WNW 10.6 km/h 17.7 km/h 87.2% 0 mm 21 W/m2
08:49 7.3 °C 5.8 °C 1000.6 hPa WNW 9.3 km/h 19.3 km/h 86.8% 0 mm 32 W/m2
08:54 7.4 °C 5.7 °C 1000.6 hPa WNW 9.5 km/h 17.7 km/h 86% 0 mm 37 W/m2
08:59 7.4 °C 5.7 °C 1000.9 hPa NW 7.9 km/h 17.7 km/h 86% 0 mm 26 W/m2
09:04 7.3 °C 5.7 °C 1000.9 hPa WNW 10.6 km/h 17.7 km/h 86% 0 mm 53 W/m2
09:09 7.3 °C 5.5 °C 1000.9 hPa WNW 12.9 km/h 19.3 km/h 85.2% 0 mm 63 W/m2
09:14 7.5 °C 5.6 °C 1000.9 hPa WNW 9.7 km/h 22.5 km/h 85% 0 mm 53 W/m2
09:19 7.6 °C 5.7 °C 1000.9 hPa WNW 14.2 km/h 22.5 km/h 85% 0 mm 49 W/m2
09:24 7.4 °C 5.6 °C 1000.9 hPa WNW 9.8 km/h 17.7 km/h 85% 0 mm 63 W/m2
09:29 7.5 °C 5.6 °C 1000.9 hPa WNW 13.2 km/h 19.3 km/h 85% 0 mm 56 W/m2
09:34 7.6 °C 5.7 °C 1000.9 hPa WNW 16.1 km/h 25.7 km/h 85% 0 mm 44 W/m2
09:39 7.7 °C 5.7 °C 1000.9 hPa WNW 16.4 km/h 25.7 km/h 85% 0 mm 51 W/m2
09:44 7.7 °C 5.8 °C 1000.9 hPa WNW 13.2 km/h 30.6 km/h 84.8% 0 mm 62 W/m2
09:49 7.8 °C 5.8 °C 1000.9 hPa WNW 13.7 km/h 27.4 km/h 84% 0 mm 70 W/m2
09:54 7.8 °C 5.8 °C 1000.6 hPa WNW 12.9 km/h 25.7 km/h 84% 0 mm 83 W/m2
09:59 7.9 °C 5.9 °C 1000.9 hPa WNW 12.9 km/h 20.9 km/h 84% 0 mm 95 W/m2
10:04 7.9 °C 5.8 °C 1000.9 hPa NW 14.2 km/h 29 km/h 83.4% 0 mm 97 W/m2
10:09 7.9 °C 5.8 °C 1000.9 hPa WNW 11.7 km/h 22.5 km/h 83.4% 0 mm 120 W/m2
10:14 7.9 °C 5.9 °C 1000.9 hPa WNW 14.6 km/h 24.1 km/h 84% 0 mm 116 W/m2
10:19 7.9 °C 5.9 °C 1000.9 hPa WNW 14.5 km/h 22.5 km/h 84% 0 mm 214 W/m2
10:24 7.9 °C 5.9 °C 1000.9 hPa WNW 14.8 km/h 22.5 km/h 84% 0 mm 199 W/m2
10:29 8.1 °C 5.9 °C 1000.9 hPa WNW 17.4 km/h 25.7 km/h 83.2% 0 mm 185 W/m2
10:34 8.1 °C 5.9 °C 1000.9 hPa WNW 13.8 km/h 24.1 km/h 83.2% 0 mm 141 W/m2
10:39 8.1 °C 6 °C 1000.9 hPa WNW 14.5 km/h 29 km/h 84% 0 mm 167 W/m2
10:44 8.2 °C 6.1 °C 1000.9 hPa NW 14.5 km/h 29 km/h 84% 0 mm 190 W/m2
10:49 8.1 °C 6 °C 1000.9 hPa WNW 15.1 km/h 32.2 km/h 84% 0 mm 276 W/m2
10:54 8.2 °C 6.1 °C 1000.9 hPa WNW 11.4 km/h 29 km/h 84% 0 mm 278 W/m2
10:59 8.2 °C 6.1 °C 1000.9 hPa WNW 20.9 km/h 32.2 km/h 84% 0 mm 132 W/m2
11:04 8.1 °C 6 °C 1000.9 hPa WNW 17.1 km/h 32.2 km/h 84% 0 mm 107 W/m2
11:09 7.9 °C 5.9 °C 1000.9 hPa WNW 13.8 km/h 24.1 km/h 84% 0 mm 109 W/m2
11:14 7.9 °C 5.9 °C 1000.9 hPa WNW 11.7 km/h 24.1 km/h 84% 0 mm 202 W/m2
11:19 8.1 °C 6 °C 1000.9 hPa NW 18.7 km/h 32.2 km/h 84% 0 mm 232 W/m2
11:24 8.1 °C 6 °C 1000.9 hPa WNW 13.2 km/h 29 km/h 84% 0 mm 223 W/m2
11:29 8.2 °C 6.1 °C 1000.9 hPa WNW 14.2 km/h 29 km/h 84% 0 mm 223 W/m2
11:34 8.2 °C 6.2 °C 1000.9 hPa WNW 13.5 km/h 29 km/h 84% 0 mm 343 W/m2
11:39 8.5 °C 6.4 °C 1000.9 hPa WNW 10.5 km/h 22.5 km/h 84% 0 mm 294 W/m2
11:44 8.6 °C 6.4 °C 1000.9 hPa WNW 13.4 km/h 22.5 km/h 83.4% 0 mm 288 W/m2
11:49 8.6 °C 6.3 °C 1000.6 hPa WNW 17.9 km/h 33.8 km/h 82.4% 0 mm 278 W/m2
11:54 8.7 °C 6.2 °C 1000.9 hPa NW 13.5 km/h 29 km/h 81.2% 0 mm 121 W/m2
11:59 8.6 °C 6 °C 1000.9 hPa WNW 16.6 km/h 25.7 km/h 81% 0 mm 84 W/m2
12:04 8.4 °C 5.8 °C 1000.9 hPa WNW 18.5 km/h 35.4 km/h 81% 0 mm 88 W/m2
12:09 8.4 °C 5.8 °C 1000.9 hPa WNW 13.5 km/h 35.4 km/h 81% 0 mm 127 W/m2
12:14 8.4 °C 5.8 °C 1000.6 hPa WNW 15.1 km/h 29 km/h 81% 0 mm 174 W/m2
12:19 8.4 °C 5.8 °C 1000.9 hPa NW 15 km/h 29 km/h 81% 0 mm 153 W/m2
12:24 8.4 °C 5.9 °C 1000.6 hPa WNW 14.5 km/h 30.6 km/h 81.2% 0 mm 97 W/m2
12:29 8.2 °C 5.8 °C 1000.6 hPa NW 17.7 km/h 27.4 km/h 82% 0 mm 148 W/m2
12:34 8.3 °C 5.9 °C 1000.6 hPa NW 14.2 km/h 35.4 km/h 82% 0 mm 151 W/m2
12:39 8.3 °C 5.8 °C 1000.6 hPa NW 13.2 km/h 32.2 km/h 81.4% 0 mm 172 W/m2
12:44 8.4 °C 5.8 °C 1000.6 hPa WNW 9.7 km/h 22.5 km/h 81% 0 mm 158 W/m2
12:49 8.4 °C 5.7 °C 1000.6 hPa NW 13.8 km/h 35.4 km/h 80.2% 0 mm 139 W/m2
12:54 8.4 °C 5.6 °C 1000.6 hPa WNW 15.1 km/h 29 km/h 80% 0 mm 142 W/m2
12:59 8.6 °C 5.7 °C 1000.6 hPa WNW 16.4 km/h 29 km/h 80% 0 mm 294 W/m2
13:04 8.6 °C 5.8 °C 1000.6 hPa WNW 13.7 km/h 32.2 km/h 80% 0 mm 206 W/m2
13:09 8.6 °C 5.8 °C 1000.6 hPa WNW 15.4 km/h 27.4 km/h 80% 0 mm 74 W/m2
13:14 8.5 °C 5.7 °C 1000.6 hPa WNW 12.2 km/h 27.4 km/h 80% 0 mm 58 W/m2
13:19 8.4 °C 5.7 °C 1000.9 hPa NW 9.8 km/h 20.9 km/h 80.8% 0 mm 69 W/m2
13:24 8.3 °C 5.8 °C 1000.6 hPa WNW 16.4 km/h 29 km/h 81% 0 mm 83 W/m2
13:29 8.3 °C 5.7 °C 1000.9 hPa NW 14.5 km/h 29 km/h 81% 0 mm 53 W/m2
13:34 8.3 °C 5.7 °C 1000.6 hPa WNW 11.9 km/h 25.7 km/h 81% 0 mm 114 W/m2
13:39 8.3 °C 5.7 °C 1000.6 hPa WNW 14.2 km/h 27.4 km/h 81% 0 mm 120 W/m2
13:44 8.3 °C 5.7 °C 1000.6 hPa NW 17.4 km/h 27.4 km/h 81% 0 mm 72 W/m2
13:49 8.2 °C 5.6 °C 1000.6 hPa WNW 16.1 km/h 27.4 km/h 81% 0 mm 84 W/m2
13:54 8.2 °C 5.6 °C 1000.6 hPa NW 8.4 km/h 20.9 km/h 81% 0 mm 105 W/m2
13:59 8.2 °C 5.6 °C 1000.6 hPa WNW 11.9 km/h 22.5 km/h 81% 0 mm 90 W/m2
14:04 8.1 °C 5.5 °C 1000.6 hPa WNW 18.2 km/h 29 km/h 81% 0 mm 86 W/m2
14:09 8.1 °C 5.5 °C 1000.6 hPa WNW 13.2 km/h 27.4 km/h 81% 0 mm 153 W/m2
14:14 8.1 °C 5.5 °C 1000.6 hPa WNW 13.2 km/h 27.4 km/h 81% 0 mm 72 W/m2
14:19 8 °C 5.4 °C 1000.6 hPa WNW 12.9 km/h 25.7 km/h 81% 0 mm 49 W/m2
14:24 7.9 °C 5.3 °C 1000.6 hPa WNW 11.3 km/h 20.9 km/h 81% 0 mm 62 W/m2
14:29 7.9 °C 5.3 °C 1000.6 hPa WNW 15.4 km/h 25.7 km/h 80.8% 0 mm 132 W/m2
14:34 8.1 °C 5.4 °C 1000.6 hPa WNW 11.4 km/h 24.1 km/h 80.4% 0 mm 91 W/m2
14:39 8.1 °C 5.3 °C 1000.9 hPa WNW 14.2 km/h 24.1 km/h 80% 0 mm 151 W/m2
14:44 8.1 °C 5.3 °C 1000.9 hPa WNW 9.7 km/h 25.7 km/h 80% 0 mm 70 W/m2
14:49 7.9 °C 5.2 °C 1000.9 hPa WNW 11.6 km/h 19.3 km/h 80% 0 mm 95 W/m2
14:54 7.9 °C 5.2 °C 1000.9 hPa WNW 11.3 km/h 20.9 km/h 80% 0 mm 72 W/m2
14:59 7.9 °C 5.3 °C 1000.9 hPa WNW 8.4 km/h 19.3 km/h 81% 0 mm 56 W/m2
15:04 7.9 °C 5.3 °C 1000.9 hPa WNW 9.5 km/h 22.5 km/h 80.6% 0 mm 33 W/m2
15:09 7.8 °C 5.3 °C 1000.9 hPa WNW 8.4 km/h 17.7 km/h 81% 0 mm 28 W/m2
15:14 7.8 °C 5.2 °C 1000.9 hPa WNW 13.8 km/h 24.1 km/h 81% 0 mm 19 W/m2
15:19 7.7 °C 5.2 °C 1000.9 hPa WNW 11.7 km/h 22.5 km/h 81.4% 0 mm 25 W/m2
15:24 7.7 °C 5.2 °C 1001.2 hPa WNW 7.2 km/h 16.1 km/h 82% 0 mm 25 W/m2
15:29 7.6 °C 5.2 °C 1001.2 hPa WNW 10 km/h 17.7 km/h 82% 0 mm 16 W/m2
15:34 7.6 °C 5.3 °C 1001.2 hPa WNW 10.9 km/h 16.1 km/h 83% 0 mm 11 W/m2
15:39 7.5 °C 5.3 °C 1001.2 hPa WNW 12.2 km/h 25.7 km/h 83% 0 mm 14 W/m2
15:44 7.4 °C 5.2 °C 1000.9 hPa WNW 12.6 km/h 27.4 km/h 83% 0 mm 14 W/m2
15:49 7.4 °C 5.3 °C 1000.9 hPa WNW 6.6 km/h 19.3 km/h 83% 0 mm 18 W/m2
15:54 7.4 °C 5.2 °C 1000.9 hPa WNW 11.1 km/h 24.1 km/h 83% 0 mm 19 W/m2
15:59 7.4 °C 5.2 °C 1000.9 hPa WNW 10.5 km/h 17.7 km/h 83% 0 mm 11 W/m2
16:04 7.4 °C 5.2 °C 1000.9 hPa WNW 10.3 km/h 22.5 km/h 83% 0 mm 5 W/m2
16:09 7.3 °C 5.1 °C 1000.9 hPa WNW 11.3 km/h 20.9 km/h 83% 0 mm 0 W/m2
16:14 7.3 °C 5.1 °C 1001.2 hPa WNW 9 km/h 14.5 km/h 83.2% 0 mm 0 W/m2
16:19 7.2 °C 5.2 °C 1000.9 hPa WNW 10.8 km/h 17.7 km/h 84% 0 mm 0 W/m2
16:24 7.1 °C 5.1 °C 1000.9 hPa WNW 13.2 km/h 19.3 km/h 84% 0 mm 0 W/m2
16:29 7.1 °C 5.1 °C 1000.9 hPa NW 10.6 km/h 17.7 km/h 84% 0 mm 0 W/m2
16:34 7.1 °C 5.1 °C 1000.9 hPa WNW 9.3 km/h 16.1 km/h 84% 0 mm 0 W/m2
16:39 7 °C 5 °C 1001.2 hPa WNW 10.3 km/h 20.9 km/h 84% 0 mm 0 W/m2
16:44 7.1 °C 5.1 °C 1001.2 hPa NW 6.8 km/h 16.1 km/h 84% 0 mm 0 W/m2
16:49 7.1 °C 5.1 °C 1001.2 hPa WNW 10.6 km/h 16.1 km/h 84% 0 mm 0 W/m2
16:54 7.1 °C 5 °C 1001.6 hPa NW 6.9 km/h 14.5 km/h 83.4% 0 mm 0 W/m2
16:59 7.2 °C 5.1 °C 1001.6 hPa WNW 8.7 km/h 12.9 km/h 83.6% 0 mm 0 W/m2
17:04 7.1 °C 5.1 °C 1001.6 hPa NW 6.1 km/h 12.9 km/h 84% 0.25 mm 0 W/m2
17:09 6.9 °C 5 °C 1001.9 hPa NW 5.3 km/h 12.9 km/h 84.4% 0.51 mm 0 W/m2
17:14 6.8 °C 4.9 °C 1002.3 hPa NW 6 km/h 16.1 km/h 85% 0.51 mm 0 W/m2
17:19 6.7 °C 5 °C 1002.3 hPa NW 7.1 km/h 16.1 km/h 86% 1.02 mm 0 W/m2
17:24 6.6 °C 5.1 °C 1002.6 hPa NNW 8.7 km/h 17.7 km/h 86.8% 1.27 mm 0 W/m2
17:29 6.4 °C 4.9 °C 1002.9 hPa NNW 11.1 km/h 20.9 km/h 87% 1.27 mm 0 W/m2
17:34 6.3 °C 4.9 °C 1002.9 hPa North 8.7 km/h 19.3 km/h 87.8% 1.52 mm 0 W/m2
17:39 6.2 °C 4.9 °C 1003.3 hPa NNE 12.4 km/h 19.3 km/h 88% 1.52 mm 0 W/m2
17:44 6.2 °C 4.8 °C 1003.3 hPa NNE 9.3 km/h 20.9 km/h 88% 1.52 mm 0 W/m2
17:49 6.1 °C 4.8 °C 1003.6 hPa NNE 9 km/h 20.9 km/h 88% 1.52 mm 0 W/m2
17:54 6 °C 4.7 °C 1003.9 hPa NNE 7.1 km/h 17.7 km/h 88.4% 1.52 mm 0 W/m2
17:59 5.9 °C 4.7 °C 1003.9 hPa NNE 17.1 km/h 27.4 km/h 89% 1.52 mm 0 W/m2
18:04 5.9 °C 4.6 °C 1004.3 hPa NNE 15.1 km/h 32.2 km/h 88% 1.52 mm 0 W/m2
18:09 5.9 °C 4.6 °C 1004.3 hPa NNE 13.8 km/h 35.4 km/h 88% 1.27 mm 0 W/m2
18:14 5.8 °C 4.5 °C 1004.6 hPa NNE 8 km/h 17.7 km/h 88% 1.02 mm 0 W/m2
18:19 5.8 °C 4.5 °C 1004.6 hPa NNE 7.9 km/h 20.9 km/h 88% 0.76 mm 0 W/m2
18:24 5.8 °C 4.5 °C 1005 hPa North 9.5 km/h 17.7 km/h 88% 0.51 mm 0 W/m2
18:29 5.8 °C 4.4 °C 1005 hPa North 10.3 km/h 20.9 km/h 88% 0.25 mm 0 W/m2
18:34 5.7 °C 4.4 °C 1005.3 hPa North 8 km/h 22.5 km/h 88% 0 mm 0 W/m2
18:39 5.7 °C 4.4 °C 1005.6 hPa NNE 5.8 km/h 17.7 km/h 88% 0 mm 0 W/m2
18:44 5.8 °C 4.5 °C 1005.6 hPa NE 9.3 km/h 17.7 km/h 88% 0 mm 0 W/m2
18:49 5.7 °C 4.4 °C 1005.6 hPa NNE 9.5 km/h 14.5 km/h 88% 0 mm 0 W/m2
18:54 5.7 °C 4.2 °C 1005.6 hPa North 9.2 km/h 17.7 km/h 87.4% 0 mm 0 W/m2
18:59 5.6 °C 4.1 °C 1006 hPa NNW 8.7 km/h 16.1 km/h 87% 0 mm 0 W/m2
19:04 5.6 °C 4.1 °C 1006.3 hPa NNW 6.6 km/h 12.9 km/h 87.2% 0 mm 0 W/m2
19:09 5.5 °C 4.2 °C 1006.3 hPa North 6.6 km/h 12.9 km/h 88% 0 mm 0 W/m2
19:14 5.4 °C 4.1 °C 1006.7 hPa North 8.2 km/h 17.7 km/h 88% 0 mm 0 W/m2
19:19 5.5 °C 4 °C 1006.7 hPa NNE 3.9 km/h 17.7 km/h 87.2% 0 mm 0 W/m2
19:24 5.6 °C 4.1 °C 1007 hPa NNW 5.5 km/h 14.5 km/h 87% 0 mm 0 W/m2
19:29 5.5 °C 4 °C 1007 hPa NNW 5.6 km/h 12.9 km/h 87% 0 mm 0 W/m2
19:34 5.5 °C 4 °C 1007 hPa North 7.7 km/h 14.5 km/h 87% 0 mm 0 W/m2
19:39 5.4 °C 3.9 °C 1007 hPa North 7.2 km/h 16.1 km/h 87% 0 mm 0 W/m2
19:44 5.3 °C 3.8 °C 1007.3 hPa North 9 km/h 24.1 km/h 87% 0 mm 0 W/m2
19:49 5.3 °C 3.6 °C 1007.3 hPa North 7.4 km/h 17.7 km/h 86% 0 mm 0 W/m2
19:54 5.2 °C 3.6 °C 1007.7 hPa NNW 5.5 km/h 14.5 km/h 86% 0 mm 0 W/m2
19:59 5.2 °C 3.5 °C 1007.7 hPa NNW 3.4 km/h 8 km/h 86% 0 mm 0 W/m2
20:04 5.1 °C 3.3 °C 1007.7 hPa NNW 5.6 km/h 11.3 km/h 86% 0 mm 0 W/m2
20:09 4.8 °C 3.2 °C 1008 hPa NNW 5.6 km/h 11.3 km/h 86% 0 mm 0 W/m2
20:14 4.8 °C 3.1 °C 1008 hPa NNW 4.7 km/h 11.3 km/h 86% 0 mm 0 W/m2
20:19 4.7 °C 3.1 °C 1008 hPa NNW 4.7 km/h 11.3 km/h 86% 0 mm 0 W/m2
20:24 4.6 °C 3 °C 1008 hPa North 5.1 km/h 19.3 km/h 86% 0 mm 0 W/m2
20:29 4.5 °C 2.9 °C 1008.4 hPa NNW 10.1 km/h 19.3 km/h 86% 0 mm 0 W/m2
20:34 4.4 °C 2.8 °C 1008.4 hPa NNW 6.3 km/h 14.5 km/h 86% 0 mm 0 W/m2
20:39 4.3 °C 2.7 °C 1008.4 hPa NNW 4 km/h 11.3 km/h 86% 0 mm 0 W/m2
20:44 4.3 °C 2.7 °C 1008.7 hPa NNW 3.5 km/h 9.7 km/h 86.2% 0 mm 0 W/m2
20:49 4.3 °C 2.8 °C 1008.7 hPa NNW 1.6 km/h 8 km/h 87% 0 mm 0 W/m2
20:54 4.2 °C 2.6 °C 1008.7 hPa NNW 2.6 km/h 11.3 km/h 86.4% 0 mm 0 W/m2
20:59 4.1 °C 2.5 °C 1009 hPa NNW 2.4 km/h 6.4 km/h 86% 0 mm 0 W/m2
21:04 4.1 °C 2.5 °C 1009 hPa Calm   4.8 km/h 86% 0 mm 0 W/m2
21:09 3.9 °C 2.3 °C 1009 hPa NNW 0.3 km/h 4.8 km/h 86% 0 mm 0 W/m2
21:14 3.8 °C 2.2 °C 1009 hPa NNW 0.3 km/h 4.8 km/h 85.6% 0 mm 0 W/m2
21:19 3.8 °C 2 °C 1009 hPa Calm   6.4 km/h 85% 0 mm 0 W/m2
21:24 3.7 °C 1.8 °C 1009.4 hPa NNW 0.6 km/h 4.8 km/h 85% 0 mm 0 W/m2
21:29 3.6 °C 1.8 °C 1009.4 hPa NNW 1 km/h 14.5 km/h 85% 0 mm 0 W/m2
21:34 3.4 °C 1.7 °C 1009.4 hPa Calm   1.6 km/h 85% 0 mm 0 W/m2
21:39 3.4 °C 1.6 °C 1009.4 hPa Calm   8 km/h 85% 0 mm 0 W/m2
21:44 3.3 °C 1.5 °C 1009.4 hPa NNW 0.6 km/h 6.4 km/h 85% 0 mm 0 W/m2
21:49 3.3 °C 1.4 °C 1009.7 hPa NNW 1.9 km/h 9.7 km/h 85% 0 mm 0 W/m2
21:54 3.2 °C 1.3 °C 1009.7 hPa NNW 2.3 km/h 11.3 km/h 84.6% 0 mm 0 W/m2
21:59 3.2 °C 1.2 °C 1009.7 hPa NNW 5.8 km/h 12.9 km/h 84% 0 mm 0 W/m2
22:04 3.2 °C 1.2 °C 1009.7 hPa North 1.3 km/h 12.9 km/h 84% 0 mm 0 W/m2
22:09 3.2 °C 1.2 °C 1009.7 hPa North 3.9 km/h 11.3 km/h 84% 0 mm 0 W/m2
22:14 3.2 °C 1.1 °C 1009.7 hPa North 2.6 km/h 11.3 km/h 83% 0 mm 0 W/m2
22:19 3.1 °C 1 °C 1009.7 hPa North 2.9 km/h 11.3 km/h 83% 0 mm 0 W/m2
22:24 2.9 °C 0.8 °C 1010 hPa North 2.3 km/h 12.9 km/h 83% 0 mm 0 W/m2
22:29 2.9 °C 0.8 °C 1010 hPa North 5.3 km/h 14.5 km/h 83% 0 mm 0 W/m2
22:34 2.9 °C 0.8 °C 1010 hPa North 1.3 km/h 12.9 km/h 83% 0 mm 0 W/m2
22:39 2.8 °C 0.6 °C 1010 hPa North 2.9 km/h 9.7 km/h 82.4% 0 mm 0 W/m2
22:44 2.8 °C 0.5 °C 1010 hPa North 1.6 km/h 11.3 km/h 82% 0 mm 0 W/m2
22:49 2.8 °C 0.4 °C 1010 hPa Calm   6.4 km/h 82% 0 mm 0 W/m2
22:54 2.7 °C 0.3 °C 1010.4 hPa North 1 km/h 9.7 km/h 82% 0 mm 0 W/m2
22:59 2.6 °C 0.3 °C 1010.4 hPa Calm   9.7 km/h 82% 0 mm 0 W/m2
23:04 2.5 °C 0.2 °C 1010.4 hPa North 0.3 km/h 4.8 km/h 82% 0 mm 0 W/m2
23:09 2.4 °C 0.1 °C 1010.4 hPa North 1 km/h 8 km/h 82% 0 mm 0 W/m2
23:14 2.3 °C 0 °C 1010.7 hPa North 0.6 km/h 8 km/h 82% 0 mm 0 W/m2
23:19 2.2 °C -0.1 °C 1010.7 hPa Calm   3.2 km/h 82% 0 mm 0 W/m2
23:24 2.2 °C -0.1 °C 1010.7 hPa North 2.3 km/h 11.3 km/h 82% 0 mm 0 W/m2
23:29 2.1 °C -0.1 °C 1010.7 hPa North 0.3 km/h 11.3 km/h 82.8% 0 mm 0 W/m2
23:34 2.1 °C -0.2 °C 1010.7 hPa Calm   9.7 km/h 82% 0 mm 0 W/m2
23:39 2.1 °C -0.2 °C 1010.7 hPa North 1.3 km/h 8 km/h 82% 0 mm 0 W/m2
23:44 2.1 °C -0.3 °C 1010.7 hPa North 1.3 km/h 6.4 km/h 82% 0 mm 0 W/m2
23:48 1.9 °C -0.3 °C 1010.7 hPa Calm   3.2 km/h 82% 0 mm 0 W/m2
23:54 1.9 °C -0.4 °C 1011.1 hPa Calm   1.6 km/h 82% 0 mm 0 W/m2
23:59 1.8 °C -0.5 °C 1011.1 hPa Calm     82% 0 mm 0 W/m2
Bath Spa Weather
Compliments of Weather Underground - 2 mb